Time;durP1;ratioP1;P1;durP2;ratioP2;P2;SDS_P1;SDS_P2;PMS_P1;PMS_P2;Temp;Humidity;BMP_temperature;BMP_pressure;BME280_temperature;BME280_humidity;BME280_pressure;Samples;Min_cycle;Max_cycle;Signal;HPM_P1;HPM_P2
2021/01/09 00:01:38;;;;;;;6.88;4.30;;;2.80;99.90;;;;;;6249386;22;20486;-56
2021/01/09 00:04:05;;;;;;;6.72;4.55;;;2.70;99.90;;;;;;6248861;22;20565;-56
2021/01/09 00:06:40;;;;;;;6.10;4.85;;;2.70;99.90;;;;;;6249306;22;20141;-56
2021/01/09 00:09:07;;;;;;;5.55;4.32;;;2.70;99.90;;;;;;6249433;22;20151;-56
2021/01/09 00:11:33;;;;;;;7.93;5.07;;;2.70;99.90;;;;;;6248858;22;20549;-56
2021/01/09 00:13:59;;;;;;;7.80;5.13;;;2.80;99.90;;;;;;6248052;23;20172;-56
2021/01/09 00:16:24;;;;;;;8.27;4.93;;;2.80;99.90;;;;;;6248712;22;20278;-56
2021/01/09 00:18:51;;;;;;;7.95;5.78;;;2.80;99.90;;;;;;6249213;22;20132;-56
2021/01/09 00:21:17;;;;;;;7.72;5.55;;;2.80;99.90;;;;;;6249044;22;20231;-56
2021/01/09 00:23:42;;;;;;;7.70;4.80;;;2.80;99.90;;;;;;6248839;22;20187;-56
2021/01/09 00:26:08;;;;;;;9.05;5.85;;;2.80;99.90;;;;;;6248716;22;20567;-56
2021/01/09 00:28:33;;;;;;;7.72;5.93;;;2.80;99.90;;;;;;6248774;22;20148;-56
2021/01/09 00:30:59;;;;;;;8.48;5.82;;;2.80;99.90;;;;;;6248611;22;20156;-56
2021/01/09 00:33:24;;;;;;;8.20;5.43;;;2.80;99.90;;;;;;6248716;22;20466;-56
2021/01/09 00:35:50;;;;;;;10.75;6.50;;;2.80;99.90;;;;;;6248751;22;20144;-56
2021/01/09 00:38:15;;;;;;;8.55;6.03;;;2.70;99.90;;;;;;6249892;22;20144;-56
2021/01/09 00:40:41;;;;;;;8.95;6.05;;;2.70;99.90;;;;;;6248607;22;20218;-56
2021/01/09 00:43:06;;;;;;;9.68;6.68;;;2.70;99.90;;;;;;6249068;22;20148;-56
2021/01/09 00:45:32;;;;;;;9.60;6.47;;;2.70;99.90;;;;;;6248787;22;20148;-56
2021/01/09 00:47:57;;;;;;;9.18;6.22;;;2.80;99.90;;;;;;6249521;22;20140;-56
2021/01/09 00:50:23;;;;;;;9.85;6.32;;;2.80;99.90;;;;;;6248636;22;20199;-56
2021/01/09 00:52:48;;;;;;;9.98;6.50;;;2.80;99.90;;;;;;6248341;22;20164;-56
2021/01/09 00:55:14;;;;;;;9.65;6.53;;;2.80;99.90;;;;;;6248715;22;20144;-56
2021/01/09 00:57:40;;;;;;;12.07;7.75;;;2.80;99.90;;;;;;6248951;22;20145;-56
2021/01/09 01:00:06;;;;;;;11.65;7.43;;;2.80;99.90;;;;;;6248476;22;20461;-56
2021/01/09 01:02:32;;;;;;;12.13;7.03;;;2.70;99.90;;;;;;6248406;22;20552;-56
2021/01/09 01:04:58;;;;;;;10.75;7.03;;;2.70;99.90;;;;;;6248296;22;20315;-56
2021/01/09 01:07:23;;;;;;;12.68;7.72;;;2.70;99.90;;;;;;6248797;22;20148;-56
2021/01/09 01:09:49;;;;;;;11.70;7.10;;;2.70;99.90;;;;;;6248414;22;20141;-56
2021/01/09 01:12:14;;;;;;;12.52;7.35;;;2.80;99.90;;;;;;6248491;22;20141;-56
2021/01/09 01:14:40;;;;;;;13.25;7.63;;;2.80;99.90;;;;;;6248643;22;20230;-56
2021/01/09 01:17:05;;;;;;;11.80;7.85;;;2.80;99.90;;;;;;6248302;22;20271;-56
2021/01/09 01:19:31;;;;;;;12.52;8.30;;;2.80;99.90;;;;;;6249032;22;20144;-56
2021/01/09 01:21:56;;;;;;;12.82;8.98;;;2.80;99.90;;;;;;6249033;22;20140;-55
2021/01/09 01:24:22;;;;;;;12.05;7.55;;;2.90;99.90;;;;;;6249513;22;20152;-55
2021/01/09 01:26:47;;;;;;;13.18;8.13;;;2.90;99.90;;;;;;6248327;22;20144;-56
2021/01/09 01:29:13;;;;;;;14.70;8.57;;;2.90;99.90;;;;;;6248238;22;20148;-56
2021/01/09 01:31:39;;;;;;;13.65;7.32;;;2.90;99.90;;;;;;6248248;22;20158;-56
2021/01/09 01:34:04;;;;;;;11.35;7.40;;;2.90;99.90;;;;;;6248597;22;20222;-56
2021/01/09 01:36:30;;;;;;;12.40;7.75;;;3.00;99.90;;;;;;6250044;22;20149;-55
2021/01/09 01:38:55;;;;;;;10.25;6.93;;;3.00;99.90;;;;;;6249845;22;20144;-55
2021/01/09 01:41:21;;;;;;;12.30;7.43;;;3.00;99.90;;;;;;6249130;22;20199;-56
2021/01/09 01:43:46;;;;;;;10.45;7.03;;;3.00;99.90;;;;;;6249622;22;20144;-56
2021/01/09 01:46:12;;;;;;;10.15;6.70;;;3.00;99.90;;;;;;6250232;22;20211;-56
2021/01/09 01:48:38;;;;;;;10.43;6.82;;;3.00;99.90;;;;;;6250051;23;20159;-56
2021/01/09 01:51:04;;;;;;;11.57;6.75;;;3.00;99.90;;;;;;6248958;23;20144;-56
2021/01/09 01:53:31;;;;;;;10.82;6.97;;;3.00;99.90;;;;;;6251157;23;20182;-56
2021/01/09 01:55:56;;;;;;;11.05;7.35;;;3.00;99.90;;;;;;6248713;22;20190;-56
2021/01/09 01:58:22;;;;;;;11.00;7.32;;;3.00;99.90;;;;;;6248719;22;20141;-56
2021/01/09 02:11:43;;;;;;;9.25;6.60;;;3.00;99.90;;;;;;6151664;23;20212;31
2021/01/09 02:16:34;;;;;;;10.13;6.38;;;3.00;99.90;;;;;;6148037;23;20204;31
2021/01/09 02:48:16;;;;;;;9.85;5.88;;;2.90;99.90;;;;;;6125204;23;389221;31
2021/01/09 03:00:26;;;;;;;9.10;6.10;;;3.00;99.90;;;;;;6147654;23;20242;31
2021/01/09 03:34:05;;;;;;;9.52;6.65;;;2.90;99.90;;;;;;6227203;22;20205;-59
2021/01/09 03:38:55;;;;;;;9.65;6.88;;;2.90;99.90;;;;;;6232026;22;20182;31
2021/01/09 05:03:48;;;;;;;15.57;8.63;;;2.90;99.90;;;;;;6216520;22;20188;-60
2021/01/09 05:19:39;;;;;;;14.27;8.10;;;2.90;99.90;;;;;;6243081;22;20738;-60
2021/01/09 05:22:14;;;;;;;13.35;8.27;;;2.90;99.90;;;;;;6228727;22;20179;-60
2021/01/09 05:56:29;;;;;;;12.13;7.88;;;3.00;99.90;;;;;;6255186;22;20199;-55
2021/01/09 05:58:56;;;;;;;10.38;6.55;;;3.10;99.90;;;;;;6256205;23;20167;-54
2021/01/09 06:01:26;;;;;;;11.82;7.18;;;3.10;99.90;;;;;;6256770;23;20147;-54
2021/01/09 06:03:57;;;;;;;11.00;6.82;;;3.10;99.90;;;;;;6256224;23;20152;-55
2021/01/09 06:06:32;;;;;;;12.93;7.35;;;3.10;99.90;;;;;;6256774;23;20556;-55
2021/01/09 06:08:59;;;;;;;11.88;7.00;;;3.10;99.90;;;;;;6256204;23;20143;-55
2021/01/09 06:11:34;;;;;;;14.20;7.72;;;3.20;99.90;;;;;;6256659;23;20206;-56
2021/01/09 06:14:00;;;;;;;12.10;7.47;;;3.20;99.90;;;;;;6256079;23;20523;-56
2021/01/09 06:16:33;;;;;;;11.57;7.60;;;3.10;99.90;;;;;;6257514;23;20147;-56
2021/01/09 06:19:00;;;;;;;11.93;7.20;;;3.10;99.90;;;;;;6256520;23;20309;-56
2021/01/09 06:21:26;;;;;;;10.93;7.13;;;3.20;99.90;;;;;;6257509;23;20155;-56
2021/01/09 06:23:53;;;;;;;9.18;6.40;;;3.20;99.90;;;;;;6256138;23;20452;-56
2021/01/09 06:26:20;;;;;;;9.70;6.60;;;3.20;99.90;;;;;;6256483;23;20143;-56
2021/01/09 06:28:50;;;;;;;11.27;7.20;;;3.20;99.90;;;;;;6254738;23;20545;-56
2021/01/09 06:31:19;;;;;;;11.15;7.20;;;3.20;99.90;;;;;;6249651;23;20219;-58
2021/01/09 06:33:50;;;;;;;10.95;6.78;;;3.30;99.90;;;;;;6249530;23;20159;-58
2021/01/09 06:36:20;;;;;;;11.27;6.82;;;3.30;99.90;;;;;;6249712;23;20128;-55
2021/01/09 06:38:56;;;;;;;4.10;3.08;;;3.30;99.90;;;;;;6249083;23;20179;-56
2021/01/09 06:41:25;;;;;;;4.45;2.88;;;3.20;99.90;;;;;;6249512;23;20140;-56
2021/01/09 06:43:54;;;;;;;3.60;2.17;;;3.10;99.90;;;;;;6249355;23;20140;-56
2021/01/09 06:46:28;;;;;;;2.85;1.90;;;3.00;99.90;;;;;;6249293;23;20548;-55
2021/01/09 06:48:54;;;;;;;2.47;1.70;;;2.90;99.90;;;;;;6249467;23;20195;-55
2021/01/09 06:51:34;;;;;;;2.85;1.73;;;2.80;99.90;;;;;;6249516;23;20167;-56
2021/01/09 06:54:15;;;;;;;2.65;1.65;;;2.70;99.90;;;;;;6249306;23;20499;-55
2021/01/09 06:56:43;;;;;;;2.70;1.60;;;2.60;99.90;;;;;;6249135;23;20239;-55
2021/01/09 06:59:08;;;;;;;3.53;1.95;;;2.50;99.90;;;;;;6249072;23;20164;-56
2021/01/09 07:01:40;;;;;;;3.53;2.00;;;2.40;99.90;;;;;;6249073;23;20152;-58
2021/01/09 07:04:05;;;;;;;2.50;1.73;;;2.40;99.90;;;;;;6248944;23;20140;-56
2021/01/09 07:06:56;;;;;;;2.83;2.10;;;2.40;99.90;;;;;;6248953;23;20223;-55
2021/01/09 07:09:28;;;;;;;3.30;2.20;;;2.40;99.90;;;;;;6248926;23;20137;-56
2021/01/09 07:11:55;;;;;;;3.22;2.42;;;2.40;99.90;;;;;;6249276;23;20140;-55
2021/01/09 07:14:21;;;;;;;2.97;2.10;;;2.40;99.90;;;;;;6249095;23;20148;-56
2021/01/09 07:16:47;;;;;;;4.82;2.47;;;2.40;99.90;;;;;;6248914;23;20206;-56
2021/01/09 07:19:13;;;;;;;3.75;2.17;;;2.40;99.90;;;;;;6248877;23;20206;-56
2021/01/09 07:21:39;;;;;;;4.28;2.80;;;2.40;99.90;;;;;;6249171;23;20140;-56
2021/01/09 07:24:06;;;;;;;5.28;3.38;;;2.40;99.90;;;;;;6249438;23;20482;-55
2021/01/09 07:26:35;;;;;;;3.72;2.92;;;2.40;99.90;;;;;;6222023;23;20227;-56
2021/01/09 07:29:03;;;;;;;4.45;2.83;;;2.30;99.90;;;;;;6222340;23;20150;-56
2021/01/09 07:31:30;;;;;;;4.80;2.58;;;2.30;99.90;;;;;;6248692;23;20151;-56
2021/01/09 07:33:59;;;;;;;4.22;2.95;;;2.30;99.90;;;;;;6248819;23;20183;-56
2021/01/09 07:36:26;;;;;;;4.63;2.97;;;2.20;99.90;;;;;;6249236;23;20178;-56
2021/01/09 07:38:59;;;;;;;5.68;3.13;;;2.20;99.90;;;;;;6248880;23;20435;-56
2021/01/09 07:41:38;;;;;;;3.95;2.80;;;2.20;99.90;;;;;;6222140;23;20151;-55
2021/01/09 07:44:14;;;;;;;3.55;2.72;;;2.20;99.90;;;;;;6248403;23;20528;-55
2021/01/09 07:46:56;;;;;;;5.57;3.13;;;2.20;99.90;;;;;;6248547;23;20152;-55
2021/01/09 07:49:29;;;;;;;4.70;3.15;;;2.20;99.90;;;;;;6248329;23;20565;-56
2021/01/09 07:52:03;;;;;;;4.03;3.15;;;2.20;99.90;;;;;;6248767;23;20129;-56
2021/01/09 07:54:44;;;;;;;4.55;2.83;;;2.20;99.90;;;;;;6248597;23;20156;-56
2021/01/09 07:57:19;;;;;;;4.65;3.33;;;2.30;99.90;;;;;;6248153;23;20457;-55
2021/01/09 07:59:53;;;;;;;3.97;2.88;;;2.30;99.90;;;;;;6248225;23;20151;-56
2021/01/09 08:02:32;;;;;;;3.53;2.78;;;2.30;99.90;;;;;;6248251;23;20174;-55
2021/01/09 08:05:04;;;;;;;4.15;2.80;;;2.30;99.90;;;;;;6248339;23;20510;-55
2021/01/09 08:07:30;;;;;;;5.40;3.25;;;2.30;99.90;;;;;;6248431;23;20191;-56
2021/01/09 08:09:55;;;;;;;5.43;3.03;;;2.40;99.90;;;;;;6248162;23;20140;-56
2021/01/09 08:12:25;;;;;;;4.55;3.00;;;2.40;99.90;;;;;;6248438;23;20148;-56
2021/01/09 08:14:51;;;;;;;5.53;3.75;;;2.50;99.90;;;;;;6247986;23;20210;-56
2021/01/09 08:17:16;;;;;;;5.22;3.58;;;2.50;99.90;;;;;;6248266;23;20168;-56
2021/01/09 08:19:42;;;;;;;5.13;3.78;;;2.60;99.90;;;;;;6248123;23;20140;-56
2021/01/09 08:22:07;;;;;;;4.78;3.30;;;2.60;99.90;;;;;;6248404;23;20155;-55
2021/01/09 08:24:33;;;;;;;6.90;3.90;;;2.60;99.90;;;;;;6248209;23;20140;-56
2021/01/09 08:26:58;;;;;;;3.70;3.00;;;2.70;99.90;;;;;;6248340;23;20412;-56
2021/01/09 08:29:25;;;;;;;4.97;3.38;;;2.70;99.90;;;;;;6248172;23;20210;-55
2021/01/09 08:31:52;;;;;;;6.75;3.65;;;2.70;99.90;;;;;;6247953;23;20205;-56
2021/01/09 08:34:19;;;;;;;6.03;3.45;;;2.70;99.90;;;;;;6247912;23;20144;-56
2021/01/09 08:36:44;;;;;;;3.97;2.90;;;2.70;99.90;;;;;;6247886;23;20556;-54
2021/01/09 08:39:10;;;;;;;2.85;2.30;;;2.60;99.90;;;;;;6248091;23;20179;-56
2021/01/09 08:41:40;;;;;;;3.83;2.65;;;2.70;99.90;;;;;;6248277;23;20140;-56
2021/01/09 08:44:10;;;;;;;4.40;2.60;;;2.70;99.90;;;;;;6247866;23;20195;-55
2021/01/09 08:46:36;;;;;;;3.92;2.80;;;2.70;99.90;;;;;;6247838;22;20160;-54
2021/01/09 08:49:03;;;;;;;4.85;2.38;;;2.80;99.90;;;;;;6248028;23;20148;-55
2021/01/09 08:51:30;;;;;;;4.93;2.67;;;2.80;99.90;;;;;;6248175;23;20186;-55
2021/01/09 08:54:10;;;;;;;3.60;2.65;;;2.80;99.90;;;;;;6247628;23;20545;-55
2021/01/09 08:56:37;;;;;;;2.63;2.17;;;2.80;99.90;;;;;;6221835;23;20453;-55
2021/01/09 08:59:08;;;;;;;3.70;2.35;;;2.80;99.90;;;;;;6248231;23;20164;-54
2021/01/09 09:01:46;;;;;;;3.03;2.28;;;2.80;99.90;;;;;;6222108;23;20144;-55
2021/01/09 09:04:12;;;;;;;3.05;2.67;;;2.80;99.90;;;;;;6248059;23;20128;-55
2021/01/09 09:06:42;;;;;;;4.13;2.63;;;2.80;99.90;;;;;;6221109;23;20424;-55
2021/01/09 09:09:08;;;;;;;4.22;2.55;;;2.80;99.90;;;;;;6247956;23;20144;-56
2021/01/09 09:11:34;;;;;;;3.63;2.42;;;2.80;99.90;;;;;;6247515;23;20207;-55
2021/01/09 09:14:07;;;;;;;3.88;2.83;;;2.70;99.90;;;;;;6247977;23;20141;-55
2021/01/09 09:16:34;;;;;;;4.88;2.90;;;2.60;99.90;;;;;;6247894;23;20145;-56
2021/01/09 09:19:11;;;;;;;4.60;2.95;;;2.50;99.90;;;;;;6247553;23;20229;-55
2021/01/09 09:21:41;;;;;;;5.00;3.10;;;2.50;99.90;;;;;;6247648;23;20132;-55
2021/01/09 09:24:07;;;;;;;4.13;3.00;;;2.40;99.90;;;;;;6247904;23;20158;-55
2021/01/09 09:26:32;;;;;;;3.03;2.58;;;2.40;99.90;;;;;;6247872;23;20440;-56
2021/01/09 09:29:01;;;;;;;3.45;2.30;;;2.30;99.90;;;;;;6247602;23;20215;-56
2021/01/09 09:31:38;;;;;;;3.47;2.53;;;2.30;99.90;;;;;;6247743;23;20140;-58
2021/01/09 09:34:15;;;;;;;4.68;2.83;;;2.30;99.90;;;;;;6247947;23;20143;-56
2021/01/09 09:36:49;;;;;;;4.00;2.33;;;2.30;99.90;;;;;;6247432;23;20517;-56
2021/01/09 09:39:18;;;;;;;3.03;2.40;;;2.30;99.90;;;;;;6247482;23;20514;-57
2021/01/09 09:41:51;;;;;;;5.00;2.65;;;2.20;99.90;;;;;;6247872;23;20282;-56
2021/01/09 09:44:16;;;;;;;3.00;2.35;;;2.10;99.90;;;;;;6247809;23;20140;-56
2021/01/09 09:46:42;;;;;;;3.70;2.40;;;2.10;99.90;;;;;;6247295;23;20147;-56
2021/01/09 09:49:08;;;;;;;3.65;2.40;;;2.10;99.90;;;;;;6248357;23;20517;-56
2021/01/09 09:51:35;;;;;;;3.85;2.88;;;2.10;99.90;;;;;;6247340;23;20148;-57
2021/01/09 09:54:01;;;;;;;4.38;3.42;;;2.20;99.90;;;;;;6247792;23;20236;-57
2021/01/09 09:56:34;;;;;;;3.63;2.92;;;2.20;99.90;;;;;;6247204;23;20198;-56
2021/01/09 09:59:01;;;;;;;3.05;2.17;;;2.20;99.90;;;;;;6247583;23;20164;-56
2021/01/09 10:01:29;;;;;;;3.47;2.38;;;2.20;99.90;;;;;;6247696;23;20175;-56
2021/01/09 10:03:55;;;;;;;2.63;1.88;;;2.20;99.90;;;;;;6222264;23;20148;-56
2021/01/09 10:06:22;;;;;;;3.25;2.25;;;2.20;99.90;;;;;;6249711;23;20488;-56
2021/01/09 10:08:47;;;;;;;2.78;2.15;;;2.10;99.90;;;;;;6249499;23;20137;-56
2021/01/09 10:11:13;;;;;;;3.95;2.65;;;2.20;99.90;;;;;;6249398;23;20207;-57
2021/01/09 10:13:38;;;;;;;3.00;2.50;;;2.20;99.90;;;;;;6249576;23;20251;-56
2021/01/09 10:16:04;;;;;;;4.38;2.55;;;2.20;99.90;;;;;;6249642;23;20151;-56
2021/01/09 10:18:32;;;;;;;3.88;2.63;;;2.30;99.90;;;;;;6249789;23;20178;-56
2021/01/09 10:20:58;;;;;;;3.30;2.33;;;2.30;99.90;;;;;;6249426;23;20572;-56
2021/01/09 10:23:24;;;;;;;2.78;2.28;;;2.30;99.90;;;;;;6249904;23;20144;-56
2021/01/09 10:25:50;;;;;;;3.08;2.30;;;2.30;99.90;;;;;;6249791;23;20160;-56
2021/01/09 10:28:15;;;;;;;4.68;2.80;;;2.30;99.90;;;;;;6249829;23;20151;-56
2021/01/09 10:30:41;;;;;;;3.38;2.42;;;2.20;99.90;;;;;;6222938;23;20447;-56
2021/01/09 10:33:07;;;;;;;3.13;2.33;;;2.20;99.90;;;;;;6249837;23;20152;-56
2021/01/09 10:35:33;;;;;;;3.17;2.40;;;2.10;99.90;;;;;;6249642;23;20231;-56
2021/01/09 10:37:59;;;;;;;3.60;2.38;;;2.00;99.90;;;;;;6249305;23;20179;-56
2021/01/09 10:40:25;;;;;;;4.10;2.47;;;2.00;99.90;;;;;;6249996;23;20140;-56
2021/01/09 10:42:50;;;;;;;4.43;2.78;;;2.00;99.90;;;;;;6249568;23;20144;-56
2021/01/09 10:45:16;;;;;;;4.38;2.97;;;2.00;99.90;;;;;;6249637;23;20294;-56
2021/01/09 10:47:42;;;;;;;5.28;3.10;;;2.00;99.90;;;;;;6249695;23;20159;-56
2021/01/09 10:50:08;;;;;;;3.75;2.83;;;2.10;99.90;;;;;;6249610;23;20148;-56
2021/01/09 10:52:34;;;;;;;5.15;2.97;;;2.00;99.90;;;;;;6249324;23;20163;-56
2021/01/09 10:54:59;;;;;;;3.92;2.78;;;2.10;99.90;;;;;;6249270;23;20152;-56
2021/01/09 10:57:25;;;;;;;4.70;3.15;;;2.10;99.90;;;;;;6248726;23;20176;-56
2021/01/09 10:59:50;;;;;;;4.95;3.20;;;2.20;99.90;;;;;;6249692;23;20144;-56
2021/01/09 11:02:16;;;;;;;6.25;3.58;;;2.20;99.90;;;;;;6249004;23;20564;-56
2021/01/09 11:04:42;;;;;;;5.20;3.83;;;2.30;99.90;;;;;;6249464;23;20140;-57
2021/01/09 11:07:07;;;;;;;5.03;3.20;;;2.40;99.90;;;;;;6249408;23;20144;-57
2021/01/09 11:09:33;;;;;;;6.15;3.70;;;2.60;99.90;;;;;;6249121;23;20141;-56
2021/01/09 11:11:58;;;;;;;7.35;3.83;;;2.70;99.90;;;;;;6248958;23;20199;-57
2021/01/09 11:14:24;;;;;;;5.85;4.05;;;2.80;99.90;;;;;;6249295;23;20144;-56
2021/01/09 11:17:01;;;;;;;6.60;3.83;;;2.90;99.90;;;;;;6248837;23;20310;-56
2021/01/09 11:19:27;;;;;;;5.18;3.83;;;3.00;99.90;;;;;;6249198;23;20195;-57
2021/01/09 11:22:01;;;;;;;7.70;3.95;;;3.00;99.90;;;;;;6249079;23;20541;-56
2021/01/09 11:24:31;;;;;;;6.97;3.80;;;3.10;99.90;;;;;;6249381;23;20124;-57
2021/01/09 11:27:01;;;;;;;4.65;3.80;;;3.10;99.90;;;;;;6248850;23;20487;-56
2021/01/09 11:29:27;;;;;;;6.20;3.85;;;3.20;99.90;;;;;;6249249;23;20148;-56
2021/01/09 11:32:02;;;;;;;6.68;4.05;;;3.20;99.90;;;;;;6248843;23;20151;-57
2021/01/09 11:34:28;;;;;;;7.47;4.05;;;3.20;99.90;;;;;;6248870;23;20223;-56
2021/01/09 11:36:54;;;;;;;7.85;4.18;;;3.30;99.90;;;;;;6248731;23;20553;-56
2021/01/09 11:39:20;;;;;;;6.93;4.30;;;3.30;99.90;;;;;;6249038;23;20291;-55
2021/01/09 11:41:45;;;;;;;6.68;4.45;;;3.40;99.90;;;;;;6249017;23;20145;-57
2021/01/09 11:44:11;;;;;;;5.38;3.85;;;3.40;99.90;;;;;;6249075;23;20140;-56
2021/01/09 11:46:37;;;;;;;8.43;4.65;;;3.40;99.90;;;;;;6248995;23;20148;-56
2021/01/09 11:49:03;;;;;;;6.05;3.55;;;3.40;99.90;;;;;;6249087;23;20407;-56
2021/01/09 11:51:28;;;;;;;7.75;4.60;;;3.40;99.90;;;;;;6249795;23;20144;-56
2021/01/09 11:53:54;;;;;;;7.65;4.43;;;3.50;99.90;;;;;;6248701;23;20144;-56
2021/01/09 11:56:20;;;;;;;5.72;4.10;;;3.60;99.90;;;;;;6248474;23;20624;-56
2021/01/09 11:58:46;;;;;;;5.20;3.50;;;3.70;99.90;;;;;;6248543;23;20172;-56
2021/01/09 12:01:12;;;;;;;4.78;2.88;;;3.70;99.90;;;;;;6248602;23;20564;-56
2021/01/09 12:49:40;;;;;;;6.43;3.63;;;3.40;99.90;;;;;;6245791;22;20191;-55
2021/01/09 13:38:06;;;;;;;3.80;2.58;;;3.90;99.90;;;;;;6176006;22;20235;31
2021/01/09 13:45:36;;;;;;;2.67;2.20;;;3.80;99.90;;;;;;6143092;23;20285;31
2021/01/09 14:03:19;;;;;;;2.28;1.67;;;3.60;99.90;;;;;;6168550;22;668625;31
2021/01/09 14:05:44;;;;;;;1.80;1.65;;;3.50;99.90;;;;;;6177374;23;20188;-57
2021/01/09 14:20:17;;;;;;;2.00;1.65;;;3.00;99.90;;;;;;6175835;23;20583;31
2021/01/09 14:28:00;;;;;;;2.65;1.95;;;2.80;99.90;;;;;;6333227;22;20517;-55
2021/01/09 14:30:26;;;;;;;2.63;2.15;;;2.70;99.90;;;;;;6296416;22;20201;31
2021/01/09 15:15:28;;;;;;;3.88;2.92;;;2.60;99.90;;;;;;6291943;22;20950;-59
2021/01/09 15:22:50;;;;;;;4.40;3.20;;;2.60;99.90;;;;;;6186344;22;20249;31
2021/01/09 15:27:41;;;;;;;4.07;2.97;;;2.60;99.90;;;;;;6170331;22;409567;31
2021/01/09 15:35:54;;;;;;;6.90;4.25;;;2.60;99.90;;;;;;6234015;22;20530;31
2021/01/09 15:53:15;;;;;;;6.55;3.90;;;2.50;99.90;;;;;;6247444;22;20260;-60
2021/01/09 15:57:43;;;;;;;4.68;3.10;;;2.50;99.90;;;;;;6218678;22;20506;31
2021/01/09 16:09:57;;;;;;;5.97;3.70;;;2.30;99.90;;;;;;6189739;23;20458;-60
2021/01/09 16:46:46;;;;;;;6.63;5.05;;;2.60;99.90;;;;;;6239899;22;20522;31
2021/01/09 17:04:49;;;;;;;8.00;5.07;;;2.60;99.90;;;;;;5649465;23;20396;31
2021/01/09 17:07:15;;;;;;;8.40;5.32;;;2.60;99.90;;;;;;5588807;23;23429;31
2021/01/09 17:51:46;;;;;;;4.05;3.10;;;2.60;99.90;;;;;;6320324;22;20200;31
2021/01/09 18:35:55;;;;;;;5.35;4.00;;;2.50;99.90;;;;;;5754740;22;20209;31
2021/01/09 19:06:08;;;;;;;5.60;4.22;;;2.90;99.90;;;;;;6232407;22;20532;31
2021/01/09 19:15:45;;;;;;;6.25;3.60;;;2.90;99.90;;;;;;6148821;23;20211;31
2021/01/09 19:37:02;;;;;;;6.03;3.90;;;2.70;99.90;;;;;;6229493;22;22020;31
2021/01/09 19:41:53;;;;;;;6.63;4.28;;;2.70;99.90;;;;;;6210415;22;392751;31
2021/01/09 19:58:42;;;;;;;8.52;5.75;;;2.50;99.90;;;;;;6206905;22;20531;31
2021/01/09 20:01:07;;;;;;;7.85;5.13;;;2.50;99.90;;;;;;6206406;22;20187;-60
2021/01/09 21:13:57;;;;;;;19.80;13.77;;;2.30;99.90;;;;;;6218084;23;20605;-55
2021/01/09 21:16:22;;;;;;;10.68;6.38;;;2.40;99.90;;;;;;6219082;23;20168;-55
2021/01/09 21:18:48;;;;;;;4.93;3.63;;;2.50;99.90;;;;;;6218876;23;20156;-56
2021/01/09 21:21:14;;;;;;;4.50;3.30;;;2.50;99.90;;;;;;6219249;23;20176;-55
2021/01/09 21:23:40;;;;;;;3.70;3.00;;;2.50;99.90;;;;;;6219087;23;20228;-56
2021/01/09 21:26:06;;;;;;;5.60;3.20;;;2.50;99.90;;;;;;6219168;23;20503;-56
2021/01/09 21:28:32;;;;;;;7.25;3.72;;;2.50;99.90;;;;;;6219022;23;20144;-56
2021/01/09 21:30:58;;;;;;;6.57;3.65;;;2.50;99.90;;;;;;6219131;23;20145;-56
2021/01/09 22:47:12;;;;;;;8.45;5.05;;;2.60;99.90;;;;;;6127428;23;20264;-55
2021/01/09 22:49:37;;;;;;;8.35;4.90;;;2.60;99.90;;;;;;6100912;23;20193;-56
2021/01/09 22:54:38;;;;;;;;;;;;;;;;;;;;;
2021/01/09 23:30:56;;;;;;;6.85;4.78;;;2.50;99.90;;;;;;6135585;23;20615;-56
2021/01/09 23:59:33;;;;;;;8.70;5.28;;;2.10;99.90;;;;;;6208445;22;20516;-56
